createdAt,value
2022-07-26T00:04:52.383Z,12.70
2022-07-26T00:09:56.480Z,12.80
2022-07-26T00:15:01.397Z,14.27
2022-07-26T00:20:05.730Z,13.15
2022-07-26T00:30:16.534Z,16.55
2022-07-26T00:35:20.160Z,16.52
2022-07-26T00:40:23.746Z,13.77
2022-07-26T00:45:28.519Z,15.80
2022-07-26T00:50:32.246Z,14.35
2022-07-26T00:55:36.448Z,14.57
2022-07-26T01:00:41.364Z,14.77
2022-07-26T01:05:44.848Z,15.02
2022-07-26T01:10:48.427Z,15.87
2022-07-26T01:15:53.163Z,16.53
2022-07-26T01:21:01.161Z,22.52
2022-07-26T01:26:13.959Z,20.23
2022-07-26T01:31:20.089Z,20.88
2022-07-26T01:36:23.454Z,19.92
2022-07-26T01:41:37.166Z,22.05
2022-07-26T01:46:41.594Z,20.42
2022-07-26T01:51:44.920Z,26.57
2022-07-26T01:56:49.670Z,40.53
2022-07-26T02:01:53.208Z,29.00
2022-07-26T02:06:56.632Z,30.60
2022-07-26T02:12:03.229Z,31.35
2022-07-26T02:17:06.908Z,22.45
2022-07-26T02:22:10.214Z,18.75
2022-07-26T02:27:15.106Z,24.70
2022-07-26T02:32:18.607Z,20.23
2022-07-26T02:37:22.297Z,23.45
2022-07-26T02:42:27.024Z,20.23
2022-07-26T02:47:30.590Z,23.90
2022-07-26T02:52:34.014Z,21.90
2022-07-26T02:57:46.156Z,19.80
2022-07-26T03:02:51.536Z,19.00
2022-07-26T03:07:55.013Z,17.90
2022-07-26T03:12:59.822Z,21.50
2022-07-26T03:18:03.151Z,18.23
2022-07-26T03:23:06.478Z,19.67
2022-07-26T03:28:16.023Z,17.48
2022-07-26T03:33:22.283Z,18.58
2022-07-26T03:38:25.756Z,17.23
2022-07-26T03:43:30.495Z,17.58
2022-07-26T03:48:36.977Z,17.42
2022-07-26T03:53:40.266Z,17.17
2022-07-26T03:58:45.030Z,16.90
2022-07-26T04:03:48.412Z,17.35
2022-07-26T04:08:51.847Z,17.13
2022-07-26T04:13:56.862Z,16.88
2022-07-26T04:19:00.261Z,16.25
2022-07-26T04:24:03.651Z,16.05
2022-07-26T04:29:08.465Z,15.43
2022-07-26T04:34:15.004Z,15.18
2022-07-26T04:39:24.519Z,14.70
2022-07-26T04:44:29.275Z,13.80
2022-07-26T04:49:32.683Z,12.18
2022-07-26T04:54:36.006Z,11.43
2022-07-26T04:59:40.721Z,11.18
2022-07-26T05:04:44.089Z,11.10
2022-07-26T05:09:47.421Z,10.88
2022-07-26T05:14:52.109Z,10.00
2022-07-26T05:19:58.850Z,9.35
2022-07-26T05:25:08.186Z,8.60
2022-07-26T05:30:13.855Z,8.93
2022-07-26T05:35:17.285Z,8.35
2022-07-26T05:40:20.713Z,8.93
2022-07-26T05:45:25.494Z,9.15
2022-07-26T05:50:28.955Z,8.15
2022-07-26T05:55:32.283Z,8.40
2022-07-26T06:00:37.132Z,8.18
2022-07-26T06:05:40.519Z,7.82
2022-07-26T06:10:44.300Z,8.18
2022-07-26T06:15:49.535Z,8.65
2022-07-26T06:20:53.387Z,7.93
2022-07-26T06:25:56.709Z,8.38
2022-07-26T06:31:01.625Z,7.40
2022-07-26T06:36:05.162Z,7.72
2022-07-26T06:41:08.557Z,7.95
2022-07-26T06:46:13.291Z,7.22
2022-07-26T06:51:16.759Z,7.10
2022-07-26T06:56:20.872Z,7.63
2022-07-26T07:01:59.710Z,7.75
2022-07-26T07:06:52.245Z,7.63
2022-07-26T07:12:02.502Z,7.78
2022-07-26T07:17:17.188Z,7.20
2022-07-26T07:22:23.329Z,7.22
2022-07-26T07:27:27.194Z,7.55
2022-07-26T07:32:32.243Z,7.20
2022-07-26T07:37:53.016Z,6.28
2022-07-26T07:42:57.352Z,7.40
2022-07-26T07:48:02.059Z,7.40
2022-07-26T07:53:19.854Z,8.13
2022-07-26T07:58:23.623Z,6.72
2022-07-26T08:03:40.937Z,7.05
2022-07-26T08:08:44.512Z,7.80
2022-07-26T08:13:48.339Z,7.38
2022-07-26T08:18:57.729Z,7.55
2022-07-26T08:24:12.820Z,8.20
2022-07-26T08:29:16.667Z,8.05
2022-07-26T08:34:22.094Z,8.10
2022-07-26T08:39:25.466Z,7.70
2022-07-26T08:44:29.307Z,7.00
2022-07-26T08:49:34.144Z,8.18
2022-07-26T08:54:37.598Z,7.97
2022-07-26T08:59:41.135Z,8.30
2022-07-26T09:04:46.585Z,7.93
2022-07-26T09:10:01.186Z,7.20
2022-07-26T09:15:07.875Z,8.90
2022-07-26T09:20:15.487Z,7.47
2022-07-26T09:25:24.202Z,7.38
2022-07-26T09:30:28.358Z,7.60
2022-07-26T09:35:52.165Z,8.82
2022-07-26T09:40:55.973Z,9.60
2022-07-26T09:46:07.558Z,8.00
2022-07-26T09:51:12.556Z,8.40
2022-07-26T09:56:16.182Z,8.55
2022-07-26T10:01:19.652Z,8.00
2022-07-26T10:06:30.090Z,7.93
2022-07-26T10:11:40.060Z,8.65
2022-07-26T10:16:43.545Z,9.65
2022-07-26T10:21:48.296Z,8.98
2022-07-26T10:26:52.006Z,8.30
2022-07-26T10:32:15.002Z,8.32
2022-07-26T10:37:30.793Z,9.38
2022-07-26T10:42:44.745Z,8.75
2022-07-26T10:48:13.466Z,10.00
2022-07-26T10:53:23.555Z,8.50
2022-07-26T10:58:28.217Z,8.32
2022-07-26T11:03:39.509Z,9.07
2022-07-26T11:08:48.285Z,9.07
2022-07-26T11:13:51.982Z,9.18
2022-07-26T11:18:55.363Z,9.15
2022-07-26T11:24:03.688Z,10.15
2022-07-26T11:29:07.263Z,8.60
2022-07-26T11:34:18.363Z,9.02
2022-07-26T11:39:25.062Z,8.65
2022-07-26T11:44:29.340Z,8.60
2022-07-26T11:50:00.566Z,8.95
2022-07-26T11:54:59.073Z,9.82
2022-07-26T12:00:03.282Z,9.15
2022-07-26T12:05:19.577Z,9.18
2022-07-26T12:10:25.039Z,8.75
2022-07-26T12:15:28.798Z,8.73
2022-07-26T12:20:32.553Z,9.00
2022-07-26T12:25:37.812Z,9.43
2022-07-26T12:30:48.573Z,9.70
2022-07-26T12:35:55.418Z,9.15
2022-07-26T12:41:00.113Z,9.38
2022-07-26T12:46:03.580Z,10.70
2022-07-26T12:51:07.223Z,9.38
2022-07-26T12:56:12.303Z,9.25
2022-07-26T13:01:15.817Z,9.10
2022-07-26T13:06:19.188Z,9.35
2022-07-26T13:11:23.940Z,9.35
2022-07-26T13:16:27.479Z,8.75
2022-07-26T13:21:33.270Z,10.00
2022-07-26T13:26:38.459Z,9.02
2022-07-26T13:31:43.435Z,9.20
2022-07-26T13:36:46.854Z,8.05
2022-07-26T13:41:51.727Z,9.65
2022-07-26T13:46:55.122Z,8.45
2022-07-26T13:51:58.533Z,8.15
2022-07-26T13:57:07.805Z,11.52
2022-07-26T14:02:11.344Z,10.13
2022-07-26T14:07:14.826Z,11.25
2022-07-26T14:12:19.664Z,10.00
2022-07-26T14:17:23.064Z,9.50
2022-07-26T14:22:26.823Z,9.00
2022-07-26T14:27:31.526Z,9.63
2022-07-26T14:32:35.227Z,9.10
2022-07-26T14:37:44.546Z,8.18
2022-07-26T14:42:50.399Z,11.38
2022-07-26T14:47:53.821Z,8.95
2022-07-26T14:52:57.931Z,13.63
2022-07-26T14:58:03.564Z,16.70
2022-07-26T15:03:09.508Z,18.67
2022-07-26T15:08:12.882Z,14.43
2022-07-26T15:13:17.742Z,12.73
2022-07-26T15:18:21.246Z,10.25
2022-07-26T15:23:27.590Z,9.77
2022-07-26T15:28:32.335Z,11.85
2022-07-26T15:33:35.796Z,9.32
2022-07-26T15:43:49.112Z,9.95
2022-07-26T15:48:52.765Z,9.77
2022-07-26T15:53:56.177Z,10.82
2022-07-26T16:04:05.256Z,12.43
2022-07-26T16:09:18.134Z,10.13
2022-07-26T16:14:23.669Z,11.25
2022-07-26T16:19:27.324Z,10.00
2022-07-26T16:24:31.359Z,10.25
2022-07-26T16:29:36.213Z,10.25
2022-07-26T16:34:40.011Z,11.20
2022-07-26T16:39:43.795Z,13.07
2022-07-26T16:44:48.688Z,10.93
2022-07-26T16:49:52.061Z,10.23
2022-07-26T16:59:59.981Z,11.60
2022-07-26T17:05:07.642Z,10.02
2022-07-26T17:10:11.701Z,11.35
2022-07-26T17:15:16.602Z,13.98
2022-07-26T17:20:20.273Z,10.77
2022-07-26T17:25:23.920Z,12.73
2022-07-26T17:30:28.661Z,10.77
2022-07-26T17:35:32.175Z,11.27
2022-07-26T17:45:40.553Z,13.17
2022-07-26T17:50:44.280Z,14.55
2022-07-26T17:55:47.947Z,11.38
2022-07-26T18:00:53.361Z,10.20
2022-07-26T18:05:57.017Z,13.30
2022-07-26T18:11:03.112Z,13.43
2022-07-26T18:16:08.049Z,10.77
2022-07-26T18:21:11.791Z,13.90
2022-07-26T18:31:19.968Z,12.25
2022-07-26T18:36:23.408Z,13.00
2022-07-26T18:41:28.664Z,15.65
2022-07-26T18:46:33.700Z,14.82
2022-07-26T18:51:37.154Z,12.88
2022-07-26T18:56:43.340Z,10.88
2022-07-26T19:01:48.403Z,13.02
2022-07-26T19:06:51.844Z,13.85
2022-07-26T19:11:55.354Z,16.92
2022-07-26T19:17:00.061Z,14.50
2022-07-26T19:22:04.637Z,13.60
2022-07-26T19:27:08.498Z,14.45
2022-07-26T19:32:13.629Z,13.32
2022-07-26T19:37:21.218Z,14.82
2022-07-26T19:42:24.596Z,15.25
2022-07-26T19:47:29.975Z,16.92
2022-07-26T19:52:33.404Z,14.77
2022-07-26T19:57:37.005Z,13.40
2022-07-26T20:02:42.231Z,17.20
2022-07-26T20:07:47.796Z,14.48
2022-07-26T20:12:51.135Z,15.52
2022-07-26T20:17:55.818Z,16.17
2022-07-26T20:22:59.251Z,16.52
2022-07-26T20:28:02.663Z,14.13
2022-07-26T20:33:07.468Z,17.92
2022-07-26T20:38:10.765Z,14.15
2022-07-26T20:43:14.089Z,16.23
2022-07-26T20:48:19.092Z,17.88
2022-07-26T20:53:22.609Z,13.70
2022-07-26T20:58:25.930Z,15.10
2022-07-26T21:03:30.681Z,14.63
2022-07-26T21:08:34.066Z,15.45
2022-07-26T21:13:37.850Z,16.50
2022-07-26T21:18:42.578Z,17.02
2022-07-26T21:23:47.906Z,14.80
2022-07-26T21:28:51.250Z,17.35
2022-07-26T21:33:56.071Z,17.65
2022-07-26T21:38:59.525Z,16.85
2022-07-26T21:44:03.295Z,17.33
2022-07-26T21:49:08.453Z,16.90
2022-07-26T21:54:12.189Z,14.70
2022-07-26T21:59:15.704Z,13.75
2022-07-26T22:04:22.174Z,16.83
2022-07-26T22:09:25.556Z,16.58
2022-07-26T22:14:29.708Z,14.98
2022-07-26T22:19:34.514Z,17.45
2022-07-26T22:24:37.963Z,17.33
2022-07-26T22:29:41.405Z,15.45
2022-07-26T22:34:46.267Z,16.55
2022-07-26T22:39:49.562Z,16.13
2022-07-26T22:44:52.944Z,16.00
2022-07-26T22:49:57.712Z,15.35
2022-07-26T22:55:01.421Z,18.60
2022-07-26T23:00:08.756Z,16.13
2022-07-26T23:05:13.730Z,16.48
2022-07-26T23:10:18.523Z,15.98
2022-07-26T23:15:22.134Z,18.73
2022-07-26T23:20:26.855Z,15.13
2022-07-26T23:25:30.279Z,16.02
2022-07-26T23:30:33.646Z,16.13
2022-07-26T23:35:38.336Z,19.07
2022-07-26T23:40:41.639Z,15.60
2022-07-26T23:45:45.198Z,15.63
2022-07-26T23:50:49.875Z,15.27
2022-07-26T23:55:53.214Z,16.73
